createdAt,value
2018-07-09T00:00:43.890Z,17.30
2018-07-09T00:03:13.127Z,17.20
2018-07-09T00:05:45.053Z,17.10
2018-07-09T00:08:13.626Z,17.20
2018-07-09T00:11:06.984Z,16.90
2018-07-09T00:13:36.169Z,16.90
2018-07-09T00:16:04.272Z,17.00
2018-07-09T00:18:32.269Z,16.80
2018-07-09T00:21:00.211Z,16.70
2018-07-09T00:23:28.184Z,16.70
2018-07-09T00:25:56.700Z,16.60
2018-07-09T00:28:25.070Z,16.40
2018-07-09T00:30:53.049Z,16.40
2018-07-09T00:33:21.321Z,16.50
2018-07-09T00:35:49.344Z,16.30
2018-07-09T00:38:17.866Z,16.20
2018-07-09T00:40:45.869Z,16.30
2018-07-09T00:43:13.877Z,16.30
2018-07-09T00:45:41.804Z,16.30
2018-07-09T00:48:09.764Z,16.10
2018-07-09T00:50:37.688Z,16.00
2018-07-09T00:53:05.689Z,16.00
2018-07-09T00:55:33.864Z,15.90
2018-07-09T00:58:01.820Z,15.80
2018-07-09T01:00:29.808Z,15.90
2018-07-09T01:02:57.757Z,15.90
2018-07-09T01:05:25.700Z,15.90
2018-07-09T01:07:53.660Z,15.90
2018-07-09T01:10:21.598Z,15.60
2018-07-09T01:12:49.567Z,15.60
2018-07-09T01:15:17.497Z,15.50
2018-07-09T01:17:45.475Z,15.40
2018-07-09T01:20:13.433Z,15.50
2018-07-09T01:22:41.380Z,15.40
2018-07-09T01:25:09.388Z,15.30
2018-07-09T01:27:37.327Z,14.90
2018-07-09T01:30:13.830Z,14.90
2018-07-09T01:32:41.831Z,15.00
2018-07-09T01:35:10.766Z,15.00
2018-07-09T01:37:39.476Z,14.90
2018-07-09T01:40:07.660Z,14.70
2018-07-09T01:42:35.826Z,14.60
2018-07-09T01:45:03.785Z,14.80
2018-07-09T01:47:31.737Z,14.90
2018-07-09T01:50:00.047Z,14.90
2018-07-09T01:52:28.370Z,14.60
2018-07-09T01:54:56.361Z,14.30
2018-07-09T01:57:24.290Z,14.00
2018-07-09T01:59:52.424Z,14.10
2018-07-09T02:02:20.371Z,14.30
2018-07-09T02:04:48.325Z,14.20
2018-07-09T02:07:16.353Z,14.20
2018-07-09T02:09:44.277Z,14.10
2018-07-09T02:12:12.206Z,14.00
2018-07-09T02:14:40.180Z,13.90
2018-07-09T02:17:08.137Z,13.80
2018-07-09T02:19:36.153Z,13.80
2018-07-09T02:22:04.102Z,13.70
2018-07-09T02:24:32.045Z,13.50
2018-07-09T02:29:27.956Z,13.60
2018-07-09T02:31:55.911Z,13.50
2018-07-09T02:34:23.880Z,13.50
2018-07-09T02:36:51.876Z,13.50
2018-07-09T02:39:19.844Z,13.40
2018-07-09T02:41:47.876Z,13.30
2018-07-09T02:44:15.823Z,13.20
2018-07-09T02:46:43.769Z,13.00
2018-07-09T02:49:11.832Z,12.50
2018-07-09T02:51:39.710Z,12.70
2018-07-09T02:54:07.645Z,12.60
2018-07-09T02:56:35.655Z,12.50
2018-07-09T02:59:03.617Z,12.40
2018-07-09T03:01:31.577Z,12.60
2018-07-09T03:03:59.561Z,12.80
2018-07-09T03:06:27.481Z,12.80
2018-07-09T03:08:55.396Z,12.70
2018-07-09T03:11:23.369Z,12.70
2018-07-09T03:13:51.288Z,12.80
2018-07-09T03:16:19.243Z,12.80
2018-07-09T03:18:47.228Z,13.10
2018-07-09T03:21:15.180Z,13.40
2018-07-09T03:23:43.179Z,13.30
2018-07-09T03:26:11.149Z,13.40
2018-07-09T03:28:39.080Z,13.40
2018-07-09T03:31:07.072Z,13.30
2018-07-09T03:33:35.020Z,13.10
2018-07-09T03:36:03.061Z,13.10
2018-07-09T03:38:31.032Z,12.90
2018-07-09T03:40:58.968Z,12.90
2018-07-09T03:43:26.968Z,12.80
2018-07-09T03:45:54.949Z,12.80
2018-07-09T03:48:22.869Z,12.80
2018-07-09T03:50:50.895Z,12.80
2018-07-09T03:53:18.824Z,12.80
2018-07-09T03:55:46.812Z,12.80
2018-07-09T03:58:14.752Z,12.70
2018-07-09T04:00:42.703Z,12.70
2018-07-09T04:03:10.746Z,12.70
2018-07-09T04:05:38.692Z,12.60
2018-07-09T04:08:06.666Z,12.60
2018-07-09T04:10:34.609Z,12.50
2018-07-09T04:13:02.554Z,12.70
2018-07-09T04:15:30.535Z,12.80
2018-07-09T04:17:58.481Z,12.90
2018-07-09T04:20:26.442Z,12.90
2018-07-09T04:22:54.372Z,12.90
2018-07-09T04:25:22.465Z,12.80
2018-07-09T04:27:50.420Z,12.90
2018-07-09T04:30:18.407Z,12.90
2018-07-09T04:32:46.367Z,12.90
2018-07-09T04:35:14.324Z,12.90
2018-07-09T04:37:42.334Z,12.90
2018-07-09T04:40:10.277Z,13.10
2018-07-09T04:42:38.234Z,13.10
2018-07-09T04:45:06.218Z,13.00
2018-07-09T04:47:34.160Z,13.00
2018-07-09T04:50:02.612Z,13.10
2018-07-09T04:52:30.542Z,13.10
2018-07-09T04:54:58.508Z,13.20
2018-07-09T04:57:26.454Z,13.30
2018-07-09T04:59:54.395Z,13.30
2018-07-09T05:02:22.360Z,13.20
2018-07-09T05:04:50.302Z,13.20
2018-07-09T05:07:18.321Z,13.30
2018-07-09T05:09:46.280Z,13.40
2018-07-09T05:12:14.231Z,13.40
2018-07-09T05:14:42.213Z,13.60
2018-07-09T05:17:10.160Z,13.70
2018-07-09T05:19:38.119Z,13.80
2018-07-09T05:22:06.093Z,13.90
2018-07-09T05:24:34.064Z,13.90
2018-07-09T05:27:02.005Z,14.10
2018-07-09T05:29:29.967Z,14.10
2018-07-09T05:31:57.901Z,14.20
2018-07-09T05:34:25.882Z,14.30
2018-07-09T05:36:53.845Z,14.50
2018-07-09T05:39:21.891Z,14.60
2018-07-09T05:41:49.881Z,14.70
2018-07-09T05:44:17.976Z,14.80
2018-07-09T05:46:46.089Z,15.10
2018-07-09T05:49:14.015Z,15.20
2018-07-09T05:51:41.983Z,15.20
2018-07-09T05:54:09.942Z,15.20
2018-07-09T05:56:37.976Z,15.40
2018-07-09T05:59:05.948Z,15.50
2018-07-09T06:01:33.890Z,15.40
2018-07-09T06:04:01.850Z,15.40
2018-07-09T06:06:29.781Z,15.60
2018-07-09T06:08:57.712Z,15.80
2018-07-09T06:11:25.687Z,15.70
2018-07-09T06:13:54.042Z,15.80
2018-07-09T06:16:22.012Z,15.90
2018-07-09T06:18:49.941Z,16.20
2018-07-09T06:21:17.903Z,16.10
2018-07-09T06:23:45.881Z,16.20
2018-07-09T06:26:13.846Z,16.30
2018-07-09T06:28:41.848Z,16.50
2018-07-09T06:31:09.780Z,16.80
2018-07-09T06:33:37.744Z,17.00
2018-07-09T06:36:05.736Z,17.00
2018-07-09T06:38:33.696Z,17.00
2018-07-09T06:41:01.654Z,16.90
2018-07-09T06:43:29.591Z,17.00
2018-07-09T06:45:57.564Z,17.50
2018-07-09T06:48:25.496Z,17.70
2018-07-09T06:50:53.423Z,17.40
2018-07-09T06:53:21.382Z,17.70
2018-07-09T06:55:49.344Z,17.60
2018-07-09T06:58:17.313Z,17.90
2018-07-09T07:00:45.274Z,17.90
2018-07-09T07:03:13.285Z,17.90
2018-07-09T07:05:41.249Z,17.70
2018-07-09T07:08:09.203Z,18.00
2018-07-09T07:10:37.173Z,18.20
2018-07-09T07:13:05.137Z,18.20
2018-07-09T07:15:33.116Z,18.20
2018-07-09T07:18:01.213Z,18.30
2018-07-09T07:20:29.136Z,18.50
2018-07-09T07:22:57.099Z,18.50
2018-07-09T07:25:25.450Z,18.60
2018-07-09T07:27:53.489Z,18.30
2018-07-09T07:30:21.410Z,18.70
2018-07-09T07:32:49.421Z,18.90
2018-07-09T07:35:17.483Z,18.80
2018-07-09T07:37:45.413Z,18.90
2018-07-09T07:40:13.420Z,18.90
2018-07-09T07:42:41.360Z,19.10
2018-07-09T07:45:09.326Z,19.00
2018-07-09T07:47:37.313Z,19.30
2018-07-09T07:50:05.317Z,19.60
2018-07-09T07:52:33.291Z,19.40
2018-07-09T07:55:01.234Z,19.70
2018-07-09T07:57:29.157Z,19.80
2018-07-09T07:59:57.112Z,19.60
2018-07-09T08:02:25.039Z,19.60
2018-07-09T08:04:53.177Z,19.70
2018-07-09T08:07:21.104Z,20.00
2018-07-09T08:09:49.022Z,20.20
2018-07-09T08:13:00.558Z,19.60
2018-07-09T08:14:45.056Z,19.30
2018-07-09T08:17:12.961Z,19.50
2018-07-09T08:19:40.886Z,19.80
2018-07-09T08:22:08.856Z,19.90
2018-07-09T08:24:36.809Z,20.00
2018-07-09T08:27:04.793Z,20.20
2018-07-09T08:29:32.761Z,20.20
2018-07-09T08:32:00.677Z,20.10
2018-07-09T08:34:28.657Z,20.40
2018-07-09T08:36:56.626Z,20.50
2018-07-09T08:39:24.565Z,20.30
2018-07-09T08:41:52.484Z,20.40
2018-07-09T08:44:20.453Z,20.70
2018-07-09T08:46:48.393Z,20.80
2018-07-09T08:49:16.318Z,20.80
2018-07-09T08:51:44.324Z,21.30
2018-07-09T08:54:12.259Z,21.10
2018-07-09T08:56:40.261Z,21.20
2018-07-09T08:59:08.276Z,21.30
2018-07-09T09:01:36.205Z,21.00
2018-07-09T09:04:04.210Z,21.00
2018-07-09T09:06:32.208Z,21.30
2018-07-09T09:09:00.189Z,20.90
2018-07-09T09:11:28.121Z,21.20
2018-07-09T09:13:56.093Z,21.00
2018-07-09T09:16:24.053Z,21.10
2018-07-09T09:18:52.322Z,21.00
2018-07-09T09:21:20.282Z,20.90
2018-07-09T09:23:48.237Z,21.00
2018-07-09T09:26:16.253Z,21.00
2018-07-09T09:28:44.202Z,20.90
2018-07-09T09:31:12.205Z,20.60
2018-07-09T09:33:40.116Z,20.90
2018-07-09T09:36:08.042Z,20.60
2018-07-09T09:38:35.960Z,20.90
2018-07-09T09:41:03.918Z,20.90
2018-07-09T09:43:31.832Z,21.00
2018-07-09T09:45:59.777Z,20.90
2018-07-09T09:48:27.716Z,20.90
2018-07-09T09:50:55.636Z,21.20
2018-07-09T09:53:23.580Z,21.20
2018-07-09T09:55:51.498Z,20.90
2018-07-09T09:58:19.470Z,21.30
2018-07-09T10:00:51.147Z,21.50
2018-07-09T10:03:19.171Z,21.20
2018-07-09T10:05:47.970Z,21.50
2018-07-09T10:08:15.900Z,21.60
2018-07-09T10:10:44.011Z,21.80
2018-07-09T10:13:12.222Z,21.90
2018-07-09T10:15:40.176Z,21.80
2018-07-09T10:18:08.154Z,22.10
2018-07-09T10:20:36.109Z,21.80
2018-07-09T10:23:04.175Z,21.90
2018-07-09T10:25:32.004Z,22.40
2018-07-09T10:27:59.964Z,22.80
2018-07-09T10:30:27.881Z,23.00
2018-07-09T10:32:55.809Z,23.10
2018-07-09T10:35:23.766Z,22.30
2018-07-09T10:37:51.704Z,22.30
2018-07-09T10:40:19.680Z,22.70
2018-07-09T10:42:47.616Z,23.10
2018-07-09T10:45:15.537Z,23.20
2018-07-09T10:47:43.513Z,23.30
2018-07-09T10:50:11.428Z,23.40
2018-07-09T10:52:39.395Z,24.10
2018-07-09T10:55:07.381Z,24.30
2018-07-09T10:57:35.336Z,23.70
2018-07-09T11:00:03.929Z,23.70
2018-07-09T11:02:31.850Z,23.50
2018-07-09T11:04:59.789Z,24.40
2018-07-09T11:07:27.710Z,24.20
2018-07-09T11:09:55.678Z,24.60
2018-07-09T11:12:23.602Z,25.10
2018-07-09T11:14:51.521Z,25.10
2018-07-09T11:17:19.464Z,24.40
2018-07-09T11:19:47.383Z,25.20
2018-07-09T11:22:15.332Z,25.70
2018-07-09T11:24:43.266Z,26.10
2018-07-09T11:27:11.241Z,26.40
2018-07-09T11:29:39.178Z,26.40
2018-07-09T11:32:07.196Z,26.50
2018-07-09T11:34:35.143Z,26.70
2018-07-09T11:37:03.086Z,25.90
2018-07-09T11:39:31.034Z,25.60
2018-07-09T11:41:58.961Z,24.90
2018-07-09T11:44:27.649Z,26.10
2018-07-09T11:46:55.657Z,26.60
2018-07-09T11:49:23.566Z,26.80
2018-07-09T11:51:51.543Z,26.80
2018-07-09T11:54:19.478Z,26.60
2018-07-09T11:56:47.417Z,26.60
2018-07-09T11:59:15.383Z,26.10
2018-07-09T12:01:43.290Z,25.90
2018-07-09T12:04:11.233Z,25.80
2018-07-09T12:06:39.121Z,25.20
2018-07-09T12:09:07.049Z,25.50
2018-07-09T12:11:35.089Z,25.70
2018-07-09T12:14:03.061Z,25.80
2018-07-09T12:16:31.066Z,26.00
2018-07-09T12:18:58.998Z,25.90
2018-07-09T12:21:26.923Z,26.00
2018-07-09T12:23:54.927Z,26.50
2018-07-09T12:26:22.908Z,26.40
2018-07-09T12:28:50.887Z,27.00
2018-07-09T12:31:19.667Z,27.10
2018-07-09T12:33:47.964Z,27.30
2018-07-09T12:36:15.999Z,27.10
2018-07-09T12:38:44.031Z,26.90
2018-07-09T12:41:11.982Z,26.60
2018-07-09T12:43:39.931Z,26.70
2018-07-09T12:46:08.018Z,26.50
2018-07-09T12:48:35.955Z,26.60
2018-07-09T12:51:03.888Z,26.80
2018-07-09T12:53:31.843Z,26.70
2018-07-09T12:55:59.769Z,27.30
2018-07-09T12:58:27.710Z,27.40
2018-07-09T13:00:55.660Z,26.90
2018-07-09T13:03:23.595Z,27.20
2018-07-09T13:05:51.544Z,26.80
2018-07-09T13:08:19.477Z,26.90
2018-07-09T13:10:47.409Z,26.90
2018-07-09T13:13:15.350Z,27.20
2018-07-09T13:15:43.270Z,27.90
2018-07-09T13:18:11.217Z,28.40
2018-07-09T13:20:39.182Z,28.30
2018-07-09T13:23:07.124Z,28.30
2018-07-09T13:25:35.073Z,27.50
2018-07-09T13:28:03.011Z,27.40
2018-07-09T13:30:30.969Z,28.30
2018-07-09T13:32:58.893Z,28.10
2018-07-09T13:35:26.824Z,28.20
2018-07-09T13:37:54.859Z,28.20
2018-07-09T13:40:22.748Z,28.30
2018-07-09T13:42:50.712Z,28.30
2018-07-09T13:45:18.654Z,28.90
2018-07-09T13:47:46.601Z,28.00
2018-07-09T13:50:14.610Z,28.20
2018-07-09T13:52:42.569Z,28.40
2018-07-09T13:55:10.519Z,28.30
2018-07-09T13:57:38.492Z,28.70
2018-07-09T14:00:06.521Z,27.90
2018-07-09T14:02:34.470Z,28.10
2018-07-09T14:05:02.404Z,29.00
2018-07-09T14:07:30.362Z,28.80
2018-07-09T14:09:58.286Z,28.60
2018-07-09T14:12:27.099Z,29.10
2018-07-09T14:14:55.815Z,28.90
2018-07-09T14:17:23.735Z,29.40
2018-07-09T14:20:30.839Z,28.90
2018-07-09T14:22:59.395Z,28.90
2018-07-09T14:25:27.364Z,29.50
2018-07-09T14:27:55.279Z,29.00
2018-07-09T14:30:23.279Z,29.40
2018-07-09T14:32:51.233Z,30.90
2018-07-09T14:35:19.180Z,29.80
2018-07-09T14:37:47.136Z,30.20
2018-07-09T14:40:15.048Z,30.60
2018-07-09T14:42:43.054Z,30.50
2018-07-09T14:45:11.039Z,30.30
2018-07-09T14:47:38.965Z,29.90
2018-07-09T14:50:06.954Z,29.60
2018-07-09T14:52:34.896Z,33.70
2018-07-09T14:55:02.879Z,33.50
2018-07-09T14:57:30.860Z,34.30
2018-07-09T14:59:58.778Z,35.90
2018-07-09T15:02:26.778Z,34.60
2018-07-09T15:04:54.689Z,35.10
2018-07-09T15:07:22.946Z,35.70
2018-07-09T15:09:50.880Z,36.10
2018-07-09T15:12:18.848Z,36.80
2018-07-09T15:14:46.875Z,35.30
2018-07-09T15:17:14.838Z,35.20
2018-07-09T15:19:42.791Z,34.50
2018-07-09T15:22:10.707Z,31.70
2018-07-09T15:24:38.680Z,32.60
2018-07-09T15:27:06.641Z,30.40
2018-07-09T15:29:34.574Z,31.10
2018-07-09T15:32:23.315Z,31.80
2018-07-09T15:34:51.434Z,31.20
2018-07-09T15:37:19.523Z,30.50
2018-07-09T15:39:47.495Z,30.80
2018-07-09T15:42:15.456Z,31.70
2018-07-09T15:44:43.417Z,30.40
2018-07-09T15:47:11.368Z,30.60
2018-07-09T15:49:39.869Z,30.70
2018-07-09T15:52:07.842Z,29.60
2018-07-09T15:54:35.855Z,30.10
2018-07-09T15:57:03.866Z,30.50
2018-07-09T15:59:31.882Z,30.40
2018-07-09T16:01:59.843Z,31.00
2018-07-09T16:04:27.891Z,31.10
2018-07-09T16:06:55.830Z,29.70
2018-07-09T16:09:23.762Z,30.50
2018-07-09T16:11:51.711Z,31.50
2018-07-09T16:14:19.693Z,31.30
2018-07-09T16:16:47.632Z,31.50
2018-07-09T16:19:15.596Z,30.10
2018-07-09T16:21:43.584Z,29.60
2018-07-09T16:24:12.484Z,30.50
2018-07-09T16:26:41.568Z,31.50
2018-07-09T16:29:10.122Z,30.60
2018-07-09T16:31:38.044Z,30.70
2018-07-09T16:34:06.346Z,30.60
2018-07-09T16:36:34.322Z,30.90
2018-07-09T16:39:02.365Z,29.90
2018-07-09T16:41:30.273Z,31.30
2018-07-09T16:43:58.220Z,31.70
2018-07-09T16:46:26.145Z,31.50
2018-07-09T16:48:54.090Z,29.70
2018-07-09T16:51:22.029Z,30.80
2018-07-09T16:53:50.004Z,30.30
2018-07-09T16:56:17.990Z,30.10
2018-07-09T16:58:46.180Z,30.30
2018-07-09T17:01:14.435Z,29.60
2018-07-09T17:03:42.663Z,30.80
2018-07-09T17:06:10.805Z,29.90
2018-07-09T17:08:38.965Z,29.10
2018-07-09T17:11:07.012Z,29.90
2018-07-09T17:13:35.000Z,29.20
2018-07-09T17:16:02.924Z,29.70
2018-07-09T17:18:36.931Z,29.20
2018-07-09T17:21:11.728Z,29.80
2018-07-09T17:23:46.417Z,29.80
2018-07-09T17:26:29.307Z,30.70
2018-07-09T17:29:03.964Z,30.20
2018-07-09T17:31:38.317Z,30.00
2018-07-09T17:34:13.198Z,30.60
2018-07-09T17:36:46.317Z,29.60
2018-07-09T17:39:20.815Z,29.60
2018-07-09T17:41:53.925Z,29.30
2018-07-09T17:44:27.471Z,29.40
2018-07-09T17:47:01.471Z,29.60
2018-07-09T17:49:36.160Z,30.00
2018-07-09T17:52:09.107Z,30.60
2018-07-09T17:54:44.090Z,30.30
2018-07-09T17:57:18.842Z,30.30
2018-07-09T17:59:52.901Z,30.30
2018-07-09T18:02:26.654Z,30.70
2018-07-09T18:05:00.760Z,30.70
2018-07-09T18:07:33.947Z,30.40
2018-07-09T18:10:08.306Z,30.20
2018-07-09T18:12:42.473Z,29.70
2018-07-09T18:15:15.913Z,29.40
2018-07-09T18:17:49.093Z,29.20
2018-07-09T18:20:24.584Z,28.50
2018-07-09T18:22:58.070Z,27.90
2018-07-09T18:25:31.120Z,27.90
2018-07-09T18:28:05.843Z,27.60
2018-07-09T18:30:39.933Z,26.00
2018-07-09T18:33:13.952Z,26.40
2018-07-09T18:35:47.883Z,26.20
2018-07-09T18:38:19.968Z,26.60
2018-07-09T18:40:51.720Z,26.20
2018-07-09T18:43:23.618Z,26.30
2018-07-09T18:45:57.812Z,26.20
2018-07-09T18:48:32.864Z,25.70
2018-07-09T18:51:06.878Z,25.50
2018-07-09T18:53:40.950Z,25.70
2018-07-09T18:56:15.844Z,25.50
2018-07-09T18:58:49.117Z,25.30
2018-07-09T19:01:22.313Z,25.00
2018-07-09T19:03:57.251Z,24.60
2018-07-09T19:07:01.672Z,24.90
2018-07-09T19:09:35.407Z,24.80
2018-07-09T19:12:10.536Z,24.50
2018-07-09T19:14:48.013Z,24.30
2018-07-09T19:18:24.966Z,24.40
2018-07-09T19:24:44.092Z,24.10
2018-07-09T19:27:15.019Z,23.90
2018-07-09T19:29:44.778Z,23.50
2018-07-09T19:32:14.553Z,23.70
2018-07-09T19:34:44.842Z,23.50
2018-07-09T19:37:15.723Z,23.50
2018-07-09T19:39:45.134Z,23.00
2018-07-09T19:42:14.019Z,22.80
2018-07-09T19:44:44.871Z,22.70
2018-07-09T19:47:14.760Z,23.00
2018-07-09T19:49:44.697Z,22.50
2018-07-09T19:52:15.605Z,22.50
2018-07-09T19:54:45.910Z,22.40
2018-07-09T19:57:16.180Z,22.70
2018-07-09T19:59:47.034Z,22.30
2018-07-09T20:02:17.858Z,22.30
2018-07-09T20:04:47.909Z,22.40
2018-07-09T20:07:18.218Z,22.10
2018-07-09T20:10:05.615Z,22.10
2018-07-09T20:12:52.740Z,21.90
2018-07-09T20:15:38.733Z,21.70
2018-07-09T20:18:08.726Z,21.80
2018-07-09T20:20:37.347Z,21.80
2018-07-09T20:23:07.118Z,21.80
2018-07-09T20:25:37.438Z,21.60
2018-07-09T20:28:08.285Z,21.40
2018-07-09T20:30:37.474Z,21.60
2018-07-09T20:33:04.207Z,21.50
2018-07-09T20:35:34.053Z,21.40
2018-07-09T20:38:02.170Z,21.30
2018-07-09T20:40:31.408Z,21.10
2018-07-09T20:43:01.210Z,21.40
2018-07-09T20:45:31.899Z,21.10
2018-07-09T20:48:01.155Z,21.00
2018-07-09T20:50:29.996Z,21.20
2018-07-09T20:52:59.657Z,21.20
2018-07-09T20:55:29.437Z,20.90
2018-07-09T20:58:01.596Z,21.10
2018-07-09T21:00:31.524Z,21.00
2018-07-09T21:03:00.722Z,20.90
2018-07-09T21:05:30.991Z,21.00
2018-07-09T21:07:58.260Z,20.70
2018-07-09T21:10:24.806Z,20.40
2018-07-09T21:12:58.313Z,20.70
2018-07-09T21:15:26.101Z,20.60
2018-07-09T21:17:52.558Z,20.60
2018-07-09T21:20:19.529Z,20.60
2018-07-09T21:22:46.643Z,20.50
2018-07-09T21:25:14.318Z,20.40
2018-07-09T21:27:41.533Z,20.20
2018-07-09T21:30:08.076Z,20.20
2018-07-09T21:32:34.605Z,20.20
2018-07-09T21:35:01.171Z,20.20
2018-07-09T21:37:28.251Z,20.20
2018-07-09T21:39:54.836Z,20.10
2018-07-09T21:42:21.851Z,20.00
2018-07-09T21:44:48.375Z,19.90
2018-07-09T21:47:14.928Z,20.10
2018-07-09T21:49:41.443Z,20.10
2018-07-09T21:52:07.953Z,20.10
2018-07-09T21:54:34.493Z,20.10
2018-07-09T21:57:01.017Z,20.30
2018-07-09T21:59:27.568Z,20.20
2018-07-09T22:01:54.078Z,19.80
2018-07-09T22:04:21.045Z,19.80
2018-07-09T22:06:47.601Z,19.90
2018-07-09T22:09:14.109Z,20.10
2018-07-09T22:11:40.656Z,20.00
2018-07-09T22:14:07.161Z,20.10
2018-07-09T22:16:33.683Z,19.90
2018-07-09T22:19:00.682Z,19.70
2018-07-09T22:21:27.184Z,19.50
2018-07-09T22:23:53.729Z,19.40
2018-07-09T22:26:20.237Z,19.30
2018-07-09T22:28:47.248Z,19.30
2018-07-09T22:31:15.224Z,19.20
2018-07-09T22:33:43.164Z,19.10
2018-07-09T22:36:11.135Z,18.80
2018-07-09T22:38:39.104Z,19.10
2018-07-09T22:41:07.149Z,19.10
2018-07-09T22:44:17.074Z,19.00
2018-07-09T22:46:45.046Z,18.90
2018-07-09T22:49:13.019Z,19.00
2018-07-09T22:51:40.940Z,18.70
2018-07-09T22:54:08.920Z,18.90
2018-07-09T22:56:36.898Z,18.80
2018-07-09T22:59:04.840Z,18.70
2018-07-09T23:01:32.858Z,18.70
2018-07-09T23:04:00.815Z,18.40
2018-07-09T23:06:28.737Z,18.50
2018-07-09T23:10:03.301Z,18.40
2018-07-09T23:13:18.580Z,18.20
2018-07-09T23:16:46.771Z,18.20
2018-07-09T23:20:07.816Z,18.00
2018-07-09T23:22:34.366Z,18.20
2018-07-09T23:25:00.881Z,18.20
2018-07-09T23:27:27.389Z,18.10
2018-07-09T23:29:53.939Z,18.00
2018-07-09T23:32:20.448Z,18.10
2018-07-09T23:34:47.439Z,18.20
2018-07-09T23:37:13.985Z,18.10
2018-07-09T23:39:40.519Z,17.80
2018-07-09T23:42:07.123Z,17.80
2018-07-09T23:44:34.094Z,17.50
2018-07-09T23:47:00.597Z,17.70
2018-07-09T23:49:27.121Z,17.40
2018-07-09T23:51:53.674Z,17.50
2018-07-09T23:54:20.186Z,17.50
2018-07-09T23:58:16.777Z,17.10
